sensor_id;sensor_type;location;lat;lon;timestamp;P1;durP1;ratioP1;P2;durP2;ratioP2
39016;SDS011;24784;45.582;5.276;2023-03-01T00:01:26;30.08;;;18.52;;
39016;SDS011;24784;45.582;5.276;2023-03-01T00:03:53;27.95;;;17.85;;
39016;SDS011;24784;45.582;5.276;2023-03-01T00:06:20;34.33;;;19.35;;
39016;SDS011;24784;45.582;5.276;2023-03-01T00:08:47;30.63;;;18.23;;
39016;SDS011;24784;45.582;5.276;2023-03-01T00:11:17;32.75;;;18.85;;
39016;SDS011;24784;45.582;5.276;2023-03-01T00:13:45;30.15;;;18.20;;
39016;SDS011;24784;45.582;5.276;2023-03-01T00:16:14;32.47;;;18.25;;
39016;SDS011;24784;45.582;5.276;2023-03-01T00:18:41;30.35;;;18.25;;
39016;SDS011;24784;45.582;5.276;2023-03-01T00:21:07;30.90;;;18.30;;
39016;SDS011;24784;45.582;5.276;2023-03-01T00:23:33;33.10;;;19.10;;
39016;SDS011;24784;45.582;5.276;2023-03-01T00:26:00;33.70;;;19.13;;
39016;SDS011;24784;45.582;5.276;2023-03-01T00:28:26;31.52;;;19.02;;
39016;SDS011;24784;45.582;5.276;2023-03-01T00:30:52;32.53;;;19.33;;
39016;SDS011;24784;45.582;5.276;2023-03-01T00:33:18;32.90;;;18.95;;
39016;SDS011;24784;45.582;5.276;2023-03-01T00:35:44;31.85;;;19.15;;
39016;SDS011;24784;45.582;5.276;2023-03-01T00:38:10;33.50;;;20.00;;
39016;SDS011;24784;45.582;5.276;2023-03-01T00:40:37;30.33;;;18.45;;
39016;SDS011;24784;45.582;5.276;2023-03-01T00:43:03;28.95;;;18.70;;
39016;SDS011;24784;45.582;5.276;2023-03-01T00:45:29;33.65;;;19.40;;
39016;SDS011;24784;45.582;5.276;2023-03-01T00:47:56;33.58;;;20.50;;
39016;SDS011;24784;45.582;5.276;2023-03-01T00:50:23;32.10;;;20.23;;
39016;SDS011;24784;45.582;5.276;2023-03-01T00:52:52;33.63;;;18.88;;
39016;SDS011;24784;45.582;5.276;2023-03-01T00:55:21;36.80;;;21.70;;
39016;SDS011;24784;45.582;5.276;2023-03-01T00:57:47;31.85;;;20.92;;
39016;SDS011;24784;45.582;5.276;2023-03-01T01:00:13;30.27;;;19.77;;
39016;SDS011;24784;45.582;5.276;2023-03-01T01:02:39;28.35;;;18.65;;
39016;SDS011;24784;45.582;5.276;2023-03-01T01:05:05;36.78;;;19.88;;
39016;SDS011;24784;45.582;5.276;2023-03-01T01:07:32;31.55;;;19.90;;
39016;SDS011;24784;45.582;5.276;2023-03-01T01:09:57;30.17;;;18.80;;
39016;SDS011;24784;45.582;5.276;2023-03-01T01:12:23;34.05;;;19.58;;
39016;SDS011;24784;45.582;5.276;2023-03-01T01:14:49;32.13;;;19.98;;
39016;SDS011;24784;45.582;5.276;2023-03-01T01:17:15;32.83;;;19.58;;
39016;SDS011;24784;45.582;5.276;2023-03-01T01:19:40;29.55;;;19.30;;
39016;SDS011;24784;45.582;5.276;2023-03-01T01:22:06;30.52;;;19.90;;
39016;SDS011;24784;45.582;5.276;2023-03-01T01:24:32;32.97;;;19.95;;
39016;SDS011;24784;45.582;5.276;2023-03-01T01:26:58;34.40;;;20.88;;
39016;SDS011;24784;45.582;5.276;2023-03-01T01:29:24;33.42;;;18.85;;
39016;SDS011;24784;45.582;5.276;2023-03-01T01:31:49;34.55;;;21.20;;
39016;SDS011;24784;45.582;5.276;2023-03-01T01:34:16;34.63;;;20.58;;
39016;SDS011;24784;45.582;5.276;2023-03-01T01:36:47;34.03;;;19.98;;
39016;SDS011;24784;45.582;5.276;2023-03-01T01:39:18;30.88;;;19.35;;
39016;SDS011;24784;45.582;5.276;2023-03-01T01:41:45;32.15;;;19.33;;
39016;SDS011;24784;45.582;5.276;2023-03-01T01:44:15;30.27;;;19.55;;
39016;SDS011;24784;45.582;5.276;2023-03-01T01:46:55;32.60;;;19.88;;
39016;SDS011;24784;45.582;5.276;2023-03-01T01:51:51;33.63;;;20.65;;
39016;SDS011;24784;45.582;5.276;2023-03-01T01:57:25;32.20;;;20.02;;
39016;SDS011;24784;45.582;5.276;2023-03-01T01:59:58;34.70;;;20.60;;
39016;SDS011;24784;45.582;5.276;2023-03-01T02:02:27;33.22;;;19.48;;
39016;SDS011;24784;45.582;5.276;2023-03-01T02:04:55;33.85;;;18.63;;
39016;SDS011;24784;45.582;5.276;2023-03-01T02:07:28;33.85;;;20.13;;
39016;SDS011;24784;45.582;5.276;2023-03-01T02:09:55;32.42;;;19.88;;
39016;SDS011;24784;45.582;5.276;2023-03-01T02:12:23;34.05;;;19.85;;
39016;SDS011;24784;45.582;5.276;2023-03-01T02:14:50;32.03;;;20.13;;
39016;SDS011;24784;45.582;5.276;2023-03-01T02:17:17;34.35;;;19.98;;
39016;SDS011;24784;45.582;5.276;2023-03-01T02:22:16;33.92;;;19.50;;
39016;SDS011;24784;45.582;5.276;2023-03-01T02:27:50;33.05;;;19.40;;
39016;SDS011;24784;45.582;5.276;2023-03-01T02:30:30;34.15;;;19.73;;
39016;SDS011;24784;45.582;5.276;2023-03-01T02:32:57;33.72;;;19.83;;
39016;SDS011;24784;45.582;5.276;2023-03-01T02:35:33;33.10;;;19.25;;
39016;SDS011;24784;45.582;5.276;2023-03-01T02:38:02;35.00;;;19.60;;
39016;SDS011;24784;45.582;5.276;2023-03-01T02:40:31;34.15;;;19.02;;
39016;SDS011;24784;45.582;5.276;2023-03-01T02:43:01;38.13;;;20.23;;
39016;SDS011;24784;45.582;5.276;2023-03-01T02:45:33;29.63;;;19.92;;
39016;SDS011;24784;45.582;5.276;2023-03-01T02:47:58;35.63;;;20.73;;
39016;SDS011;24784;45.582;5.276;2023-03-01T02:58:03;35.20;;;20.73;;
39016;SDS011;24784;45.582;5.276;2023-03-01T03:00:35;32.15;;;20.00;;
39016;SDS011;24784;45.582;5.276;2023-03-01T03:03:05;37.03;;;20.95;;
39016;SDS011;24784;45.582;5.276;2023-03-01T03:05:32;32.35;;;20.33;;
39016;SDS011;24784;45.582;5.276;2023-03-01T03:07:59;33.63;;;20.08;;
39016;SDS011;24784;45.582;5.276;2023-03-01T03:10:27;33.38;;;20.80;;
39016;SDS011;24784;45.582;5.276;2023-03-01T03:12:55;34.88;;;20.08;;
39016;SDS011;24784;45.582;5.276;2023-03-01T03:15:26;33.67;;;19.88;;
39016;SDS011;24784;45.582;5.276;2023-03-01T03:17:53;30.77;;;19.17;;
39016;SDS011;24784;45.582;5.276;2023-03-01T03:20:20;34.20;;;20.50;;
39016;SDS011;24784;45.582;5.276;2023-03-01T03:22:48;39.80;;;20.85;;
39016;SDS011;24784;45.582;5.276;2023-03-01T03:25:15;40.60;;;20.92;;
39016;SDS011;24784;45.582;5.276;2023-03-01T03:27:42;36.40;;;20.60;;
39016;SDS011;24784;45.582;5.276;2023-03-01T03:30:10;35.45;;;20.23;;
39016;SDS011;24784;45.582;5.276;2023-03-01T03:32:41;33.83;;;20.25;;
39016;SDS011;24784;45.582;5.276;2023-03-01T03:35:17;38.38;;;21.58;;
39016;SDS011;24784;45.582;5.276;2023-03-01T03:37:51;34.80;;;20.90;;
39016;SDS011;24784;45.582;5.276;2023-03-01T03:40:32;35.72;;;21.55;;
39016;SDS011;24784;45.582;5.276;2023-03-01T03:43:04;35.72;;;21.77;;
39016;SDS011;24784;45.582;5.276;2023-03-01T03:45:38;32.47;;;20.08;;
39016;SDS011;24784;45.582;5.276;2023-03-01T03:48:04;34.75;;;20.55;;
39016;SDS011;24784;45.582;5.276;2023-03-01T03:50:32;35.30;;;20.15;;
39016;SDS011;24784;45.582;5.276;2023-03-01T03:53:02;59.38;;;25.05;;
39016;SDS011;24784;45.582;5.276;2023-03-01T03:55:29;54.47;;;25.10;;
39016;SDS011;24784;45.582;5.276;2023-03-01T03:57:57;36.80;;;21.27;;
39016;SDS011;24784;45.582;5.276;2023-03-01T04:00:26;37.05;;;20.85;;
39016;SDS011;24784;45.582;5.276;2023-03-01T04:02:53;34.72;;;20.42;;
39016;SDS011;24784;45.582;5.276;2023-03-01T04:05:21;38.75;;;21.75;;
39016;SDS011;24784;45.582;5.276;2023-03-01T04:07:48;35.53;;;21.10;;
39016;SDS011;24784;45.582;5.276;2023-03-01T04:10:15;35.42;;;20.75;;
39016;SDS011;24784;45.582;5.276;2023-03-01T04:12:42;32.33;;;20.10;;
39016;SDS011;24784;45.582;5.276;2023-03-01T04:15:08;38.78;;;21.35;;
39016;SDS011;24784;45.582;5.276;2023-03-01T04:17:42;35.63;;;21.27;;
39016;SDS011;24784;45.582;5.276;2023-03-01T04:20:10;39.28;;;22.05;;
39016;SDS011;24784;45.582;5.276;2023-03-01T04:22:38;34.95;;;21.52;;
39016;SDS011;24784;45.582;5.276;2023-03-01T04:25:05;35.78;;;20.92;;
39016;SDS011;24784;45.582;5.276;2023-03-01T04:27:34;36.85;;;21.45;;
39016;SDS011;24784;45.582;5.276;2023-03-01T04:30:01;33.97;;;19.65;;
39016;SDS011;24784;45.582;5.276;2023-03-01T04:32:28;35.08;;;20.70;;
39016;SDS011;24784;45.582;5.276;2023-03-01T04:34:53;37.05;;;22.27;;
39016;SDS011;24784;45.582;5.276;2023-03-01T04:37:22;40.08;;;21.70;;
39016;SDS011;24784;45.582;5.276;2023-03-01T04:39:49;34.17;;;21.10;;
39016;SDS011;24784;45.582;5.276;2023-03-01T04:42:14;37.97;;;22.23;;
39016;SDS011;24784;45.582;5.276;2023-03-01T04:44:41;39.15;;;22.08;;
39016;SDS011;24784;45.582;5.276;2023-03-01T04:47:08;38.30;;;22.33;;
39016;SDS011;24784;45.582;5.276;2023-03-01T04:49:34;39.33;;;22.55;;
39016;SDS011;24784;45.582;5.276;2023-03-01T04:52:00;39.58;;;21.65;;
39016;SDS011;24784;45.582;5.276;2023-03-01T04:54:32;35.38;;;21.83;;
39016;SDS011;24784;45.582;5.276;2023-03-01T04:56:59;38.58;;;22.27;;
39016;SDS011;24784;45.582;5.276;2023-03-01T04:59:26;36.10;;;20.90;;
39016;SDS011;24784;45.582;5.276;2023-03-01T05:01:52;37.55;;;21.95;;
39016;SDS011;24784;45.582;5.276;2023-03-01T05:04:22;36.20;;;21.58;;
39016;SDS011;24784;45.582;5.276;2023-03-01T05:06:49;42.15;;;21.42;;
39016;SDS011;24784;45.582;5.276;2023-03-01T05:09:14;36.85;;;21.17;;
39016;SDS011;24784;45.582;5.276;2023-03-01T05:11:40;35.17;;;21.13;;
39016;SDS011;24784;45.582;5.276;2023-03-01T05:14:07;36.83;;;21.52;;
39016;SDS011;24784;45.582;5.276;2023-03-01T05:16:34;35.03;;;20.77;;
39016;SDS011;24784;45.582;5.276;2023-03-01T05:19:02;42.55;;;21.05;;
39016;SDS011;24784;45.582;5.276;2023-03-01T05:21:39;39.33;;;22.08;;
39016;SDS011;24784;45.582;5.276;2023-03-01T05:24:24;36.35;;;21.95;;
39016;SDS011;24784;45.582;5.276;2023-03-01T05:26:51;37.33;;;22.05;;
39016;SDS011;24784;45.582;5.276;2023-03-01T05:29:20;43.30;;;22.50;;
39016;SDS011;24784;45.582;5.276;2023-03-01T05:31:51;38.88;;;23.13;;
39016;SDS011;24784;45.582;5.276;2023-03-01T05:34:18;35.75;;;20.92;;
39016;SDS011;24784;45.582;5.276;2023-03-01T05:36:48;41.63;;;23.13;;
39016;SDS011;24784;45.582;5.276;2023-03-01T05:39:18;45.20;;;23.13;;
39016;SDS011;24784;45.582;5.276;2023-03-01T05:41:48;39.78;;;22.77;;
39016;SDS011;24784;45.582;5.276;2023-03-01T05:44:17;38.90;;;22.27;;
39016;SDS011;24784;45.582;5.276;2023-03-01T05:46:43;38.47;;;22.27;;
39016;SDS011;24784;45.582;5.276;2023-03-01T05:49:09;40.65;;;22.42;;
39016;SDS011;24784;45.582;5.276;2023-03-01T05:51:36;39.35;;;22.85;;
39016;SDS011;24784;45.582;5.276;2023-03-01T05:54:02;37.97;;;21.55;;
39016;SDS011;24784;45.582;5.276;2023-03-01T05:56:27;39.50;;;22.52;;
39016;SDS011;24784;45.582;5.276;2023-03-01T05:58:54;41.70;;;22.90;;
39016;SDS011;24784;45.582;5.276;2023-03-01T06:01:19;42.25;;;23.40;;
39016;SDS011;24784;45.582;5.276;2023-03-01T06:03:45;37.90;;;22.48;;
39016;SDS011;24784;45.582;5.276;2023-03-01T06:06:11;40.03;;;22.17;;
39016;SDS011;24784;45.582;5.276;2023-03-01T06:08:37;46.28;;;23.58;;
39016;SDS011;24784;45.582;5.276;2023-03-01T06:11:02;45.17;;;23.42;;
39016;SDS011;24784;45.582;5.276;2023-03-01T06:13:28;40.35;;;22.88;;
39016;SDS011;24784;45.582;5.276;2023-03-01T06:15:54;43.97;;;23.75;;
39016;SDS011;24784;45.582;5.276;2023-03-01T06:18:21;44.72;;;23.33;;
39016;SDS011;24784;45.582;5.276;2023-03-01T06:20:52;41.50;;;22.30;;
39016;SDS011;24784;45.582;5.276;2023-03-01T06:23:21;41.55;;;23.30;;
39016;SDS011;24784;45.582;5.276;2023-03-01T06:25:48;43.15;;;22.35;;
39016;SDS011;24784;45.582;5.276;2023-03-01T06:28:14;39.47;;;22.75;;
39016;SDS011;24784;45.582;5.276;2023-03-01T06:30:40;41.95;;;23.33;;
39016;SDS011;24784;45.582;5.276;2023-03-01T06:33:05;41.47;;;24.58;;
39016;SDS011;24784;45.582;5.276;2023-03-01T06:35:31;38.85;;;22.98;;
39016;SDS011;24784;45.582;5.276;2023-03-01T06:37:58;42.58;;;23.70;;
39016;SDS011;24784;45.582;5.276;2023-03-01T06:40:25;42.35;;;25.25;;
39016;SDS011;24784;45.582;5.276;2023-03-01T06:42:51;38.55;;;23.25;;
39016;SDS011;24784;45.582;5.276;2023-03-01T06:45:17;41.40;;;23.67;;
39016;SDS011;24784;45.582;5.276;2023-03-01T06:47:44;46.35;;;24.08;;
39016;SDS011;24784;45.582;5.276;2023-03-01T06:50:10;41.47;;;24.67;;
39016;SDS011;24784;45.582;5.276;2023-03-01T06:52:36;45.67;;;24.55;;
39016;SDS011;24784;45.582;5.276;2023-03-01T06:55:02;47.15;;;24.77;;
39016;SDS011;24784;45.582;5.276;2023-03-01T06:57:30;46.85;;;24.42;;
39016;SDS011;24784;45.582;5.276;2023-03-01T06:59:55;44.67;;;24.67;;
39016;SDS011;24784;45.582;5.276;2023-03-01T07:02:21;47.55;;;25.25;;
39016;SDS011;24784;45.582;5.276;2023-03-01T07:04:51;48.35;;;24.02;;
39016;SDS011;24784;45.582;5.276;2023-03-01T07:07:17;44.22;;;25.05;;
39016;SDS011;24784;45.582;5.276;2023-03-01T07:09:46;46.97;;;24.60;;
39016;SDS011;24784;45.582;5.276;2023-03-01T07:12:13;44.90;;;24.92;;
39016;SDS011;24784;45.582;5.276;2023-03-01T07:14:39;42.08;;;24.50;;
39016;SDS011;24784;45.582;5.276;2023-03-01T07:17:05;43.92;;;25.15;;
39016;SDS011;24784;45.582;5.276;2023-03-01T07:19:31;46.25;;;24.58;;
39016;SDS011;24784;45.582;5.276;2023-03-01T07:21:57;43.03;;;25.40;;
39016;SDS011;24784;45.582;5.276;2023-03-01T07:24:22;46.15;;;24.63;;
39016;SDS011;24784;45.582;5.276;2023-03-01T07:26:49;48.63;;;26.05;;
39016;SDS011;24784;45.582;5.276;2023-03-01T07:29:15;45.50;;;25.33;;
39016;SDS011;24784;45.582;5.276;2023-03-01T07:31:42;45.75;;;27.02;;
39016;SDS011;24784;45.582;5.276;2023-03-01T07:34:07;47.25;;;24.98;;
39016;SDS011;24784;45.582;5.276;2023-03-01T07:36:33;45.65;;;25.33;;
39016;SDS011;24784;45.582;5.276;2023-03-01T07:38:59;50.28;;;26.27;;
39016;SDS011;24784;45.582;5.276;2023-03-01T07:41:27;42.10;;;24.15;;
39016;SDS011;24784;45.582;5.276;2023-03-01T07:43:53;46.45;;;24.60;;
39016;SDS011;24784;45.582;5.276;2023-03-01T07:46:18;47.45;;;26.13;;
39016;SDS011;24784;45.582;5.276;2023-03-01T07:48:44;45.25;;;25.40;;
39016;SDS011;24784;45.582;5.276;2023-03-01T07:51:10;46.88;;;24.98;;
39016;SDS011;24784;45.582;5.276;2023-03-01T07:53:36;45.97;;;24.88;;
39016;SDS011;24784;45.582;5.276;2023-03-01T07:58:35;46.83;;;25.50;;
39016;SDS011;24784;45.582;5.276;2023-03-01T08:01:02;45.58;;;25.77;;
39016;SDS011;24784;45.582;5.276;2023-03-01T08:03:29;48.38;;;27.30;;
39016;SDS011;24784;45.582;5.276;2023-03-01T08:05:54;46.08;;;26.02;;
39016;SDS011;24784;45.582;5.276;2023-03-01T08:08:20;48.30;;;25.10;;
39016;SDS011;24784;45.582;5.276;2023-03-01T08:10:46;46.10;;;25.88;;
39016;SDS011;24784;45.582;5.276;2023-03-01T08:13:11;46.75;;;26.02;;
39016;SDS011;24784;45.582;5.276;2023-03-01T08:15:37;46.40;;;25.55;;
39016;SDS011;24784;45.582;5.276;2023-03-01T08:18:03;46.28;;;25.85;;
39016;SDS011;24784;45.582;5.276;2023-03-01T08:20:29;45.75;;;25.67;;
39016;SDS011;24784;45.582;5.276;2023-03-01T08:22:54;48.10;;;25.52;;
39016;SDS011;24784;45.582;5.276;2023-03-01T08:25:20;48.15;;;26.38;;
39016;SDS011;24784;45.582;5.276;2023-03-01T08:27:46;51.08;;;26.63;;
39016;SDS011;24784;45.582;5.276;2023-03-01T08:30:11;47.20;;;26.63;;
39016;SDS011;24784;45.582;5.276;2023-03-01T08:32:38;48.17;;;26.10;;
39016;SDS011;24784;45.582;5.276;2023-03-01T08:35:05;55.55;;;27.70;;
39016;SDS011;24784;45.582;5.276;2023-03-01T08:37:31;53.17;;;28.23;;
39016;SDS011;24784;45.582;5.276;2023-03-01T08:39:58;51.80;;;26.55;;
39016;SDS011;24784;45.582;5.276;2023-03-01T08:42:25;47.60;;;27.98;;
39016;SDS011;24784;45.582;5.276;2023-03-01T08:44:51;52.60;;;27.08;;
39016;SDS011;24784;45.582;5.276;2023-03-01T08:47:16;48.00;;;26.13;;
39016;SDS011;24784;45.582;5.276;2023-03-01T08:49:42;50.30;;;27.60;;
39016;SDS011;24784;45.582;5.276;2023-03-01T08:52:08;49.50;;;26.77;;
39016;SDS011;24784;45.582;5.276;2023-03-01T08:54:34;53.33;;;29.38;;
39016;SDS011;24784;45.582;5.276;2023-03-01T08:57:03;51.67;;;27.05;;
39016;SDS011;24784;45.582;5.276;2023-03-01T08:59:28;46.63;;;27.25;;
39016;SDS011;24784;45.582;5.276;2023-03-01T09:01:55;48.50;;;27.25;;
39016;SDS011;24784;45.582;5.276;2023-03-01T09:04:21;49.00;;;27.38;;
39016;SDS011;24784;45.582;5.276;2023-03-01T09:06:47;54.05;;;27.52;;
39016;SDS011;24784;45.582;5.276;2023-03-01T09:09:16;46.00;;;27.13;;
39016;SDS011;24784;45.582;5.276;2023-03-01T09:11:43;52.38;;;29.63;;
39016;SDS011;24784;45.582;5.276;2023-03-01T09:14:11;54.67;;;27.60;;
39016;SDS011;24784;45.582;5.276;2023-03-01T09:16:38;51.33;;;28.38;;
39016;SDS011;24784;45.582;5.276;2023-03-01T09:19:04;48.58;;;26.98;;
39016;SDS011;24784;45.582;5.276;2023-03-01T09:21:30;51.03;;;28.63;;
39016;SDS011;24784;45.582;5.276;2023-03-01T09:23:57;45.28;;;27.88;;
39016;SDS011;24784;45.582;5.276;2023-03-01T09:26:23;52.95;;;29.35;;
39016;SDS011;24784;45.582;5.276;2023-03-01T09:28:50;56.70;;;29.27;;
39016;SDS011;24784;45.582;5.276;2023-03-01T09:31:20;49.60;;;28.02;;
39016;SDS011;24784;45.582;5.276;2023-03-01T09:33:47;62.72;;;29.60;;
39016;SDS011;24784;45.582;5.276;2023-03-01T09:36:16;52.45;;;28.08;;
39016;SDS011;24784;45.582;5.276;2023-03-01T09:38:57;54.97;;;28.42;;
39016;SDS011;24784;45.582;5.276;2023-03-01T09:41:36;52.85;;;29.10;;
39016;SDS011;24784;45.582;5.276;2023-03-01T09:46:56;55.92;;;29.52;;
39016;SDS011;24784;45.582;5.276;2023-03-01T09:49:27;54.88;;;29.90;;
39016;SDS011;24784;45.582;5.276;2023-03-01T09:52:03;51.35;;;28.88;;
39016;SDS011;24784;45.582;5.276;2023-03-01T09:54:49;50.55;;;28.77;;
39016;SDS011;24784;45.582;5.276;2023-03-01T10:00:11;54.25;;;27.20;;
39016;SDS011;24784;45.582;5.276;2023-03-01T10:03:08;51.90;;;28.70;;
39016;SDS011;24784;45.582;5.276;2023-03-01T10:05:59;51.63;;;29.10;;
39016;SDS011;24784;45.582;5.276;2023-03-01T10:08:40;56.53;;;29.10;;
39016;SDS011;24784;45.582;5.276;2023-03-01T10:11:41;52.08;;;28.48;;
39016;SDS011;24784;45.582;5.276;2023-03-01T10:17:11;50.83;;;28.45;;
39016;SDS011;24784;45.582;5.276;2023-03-01T10:19:58;55.50;;;29.67;;
39016;SDS011;24784;45.582;5.276;2023-03-01T10:22:38;47.97;;;27.73;;
39016;SDS011;24784;45.582;5.276;2023-03-01T10:25:04;48.47;;;28.73;;
39016;SDS011;24784;45.582;5.276;2023-03-01T10:27:34;53.55;;;29.00;;
39016;SDS011;24784;45.582;5.276;2023-03-01T10:30:40;54.88;;;28.80;;
39016;SDS011;24784;45.582;5.276;2023-03-01T10:33:14;52.60;;;29.95;;
39016;SDS011;24784;45.582;5.276;2023-03-01T10:35:44;54.08;;;30.23;;
39016;SDS011;24784;45.582;5.276;2023-03-01T10:38:11;50.38;;;29.35;;
39016;SDS011;24784;45.582;5.276;2023-03-01T10:40:57;52.13;;;30.75;;
39016;SDS011;24784;45.582;5.276;2023-03-01T10:43:23;54.30;;;30.42;;
39016;SDS011;24784;45.582;5.276;2023-03-01T10:46:30;53.47;;;29.98;;
39016;SDS011;24784;45.582;5.276;2023-03-01T10:51:45;49.67;;;29.70;;
39016;SDS011;24784;45.582;5.276;2023-03-01T10:54:22;55.97;;;30.48;;
39016;SDS011;24784;45.582;5.276;2023-03-01T10:56:54;59.17;;;31.45;;
39016;SDS011;24784;45.582;5.276;2023-03-01T11:04:34;53.13;;;30.42;;
39016;SDS011;24784;45.582;5.276;2023-03-01T11:07:00;54.03;;;31.25;;
39016;SDS011;24784;45.582;5.276;2023-03-01T11:09:29;52.85;;;30.25;;
39016;SDS011;24784;45.582;5.276;2023-03-01T11:12:03;56.00;;;31.30;;
39016;SDS011;24784;45.582;5.276;2023-03-01T11:14:38;56.15;;;31.90;;
39016;SDS011;24784;45.582;5.276;2023-03-01T11:19:40;53.42;;;30.45;;
39016;SDS011;24784;45.582;5.276;2023-03-01T11:22:19;54.70;;;30.95;;
39016;SDS011;24784;45.582;5.276;2023-03-01T11:24:48;51.80;;;30.40;;
39016;SDS011;24784;45.582;5.276;2023-03-01T11:30:13;54.40;;;31.30;;
39016;SDS011;24784;45.582;5.276;2023-03-01T11:32:50;56.05;;;31.60;;
39016;SDS011;24784;45.582;5.276;2023-03-01T11:35:37;56.33;;;30.60;;
39016;SDS011;24784;45.582;5.276;2023-03-01T11:38:15;64.35;;;30.73;;
39016;SDS011;24784;45.582;5.276;2023-03-01T11:40:49;53.63;;;31.65;;
39016;SDS011;24784;45.582;5.276;2023-03-01T11:51:50;57.22;;;30.95;;
39016;SDS011;24784;45.582;5.276;2023-03-01T11:56:57;52.35;;;30.67;;
39016;SDS011;24784;45.582;5.276;2023-03-01T12:10:18;53.97;;;30.52;;
39016;SDS011;24784;45.582;5.276;2023-03-01T12:21:45;55.17;;;31.05;;
39016;SDS011;24784;45.582;5.276;2023-03-01T12:27:11;58.65;;;31.35;;
39016;SDS011;24784;45.582;5.276;2023-03-01T12:29:52;60.10;;;33.35;;
39016;SDS011;24784;45.582;5.276;2023-03-01T12:32:25;53.45;;;31.17;;
39016;SDS011;24784;45.582;5.276;2023-03-01T12:45:27;54.83;;;31.67;;
39016;SDS011;24784;45.582;5.276;2023-03-01T12:48:13;57.63;;;30.65;;
39016;SDS011;24784;45.582;5.276;2023-03-01T12:50:53;56.13;;;31.42;;
39016;SDS011;24784;45.582;5.276;2023-03-01T12:53:23;52.55;;;30.63;;
39016;SDS011;24784;45.582;5.276;2023-03-01T12:55:49;52.25;;;30.90;;
39016;SDS011;24784;45.582;5.276;2023-03-01T12:58:33;49.67;;;30.10;;
39016;SDS011;24784;45.582;5.276;2023-03-01T13:01:22;55.97;;;31.88;;
39016;SDS011;24784;45.582;5.276;2023-03-01T13:04:07;54.08;;;30.63;;
39016;SDS011;24784;45.582;5.276;2023-03-01T13:17:47;52.35;;;31.00;;
39016;SDS011;24784;45.582;5.276;2023-03-01T13:31:02;53.63;;;30.35;;
39016;SDS011;24784;45.582;5.276;2023-03-01T13:39:04;49.15;;;30.38;;
39016;SDS011;24784;45.582;5.276;2023-03-01T13:41:52;49.45;;;29.85;;
39016;SDS011;24784;45.582;5.276;2023-03-01T13:46:44;55.78;;;31.45;;
39016;SDS011;24784;45.582;5.276;2023-03-01T13:49:14;50.50;;;31.17;;
39016;SDS011;24784;45.582;5.276;2023-03-01T13:51:46;53.95;;;32.97;;
39016;SDS011;24784;45.582;5.276;2023-03-01T13:54:13;52.85;;;30.42;;
39016;SDS011;24784;45.582;5.276;2023-03-01T13:56:40;56.10;;;30.55;;
39016;SDS011;24784;45.582;5.276;2023-03-01T13:59:13;56.10;;;30.90;;
39016;SDS011;24784;45.582;5.276;2023-03-01T14:01:42;57.63;;;31.88;;
39016;SDS011;24784;45.582;5.276;2023-03-01T14:07:19;55.55;;;32.42;;
39016;SDS011;24784;45.582;5.276;2023-03-01T14:09:47;50.70;;;30.70;;
39016;SDS011;24784;45.582;5.276;2023-03-01T14:15:15;70.22;;;33.55;;
39016;SDS011;24784;45.582;5.276;2023-03-01T14:20:23;54.65;;;31.80;;
39016;SDS011;24784;45.582;5.276;2023-03-01T14:22:57;52.42;;;30.85;;
39016;SDS011;24784;45.582;5.276;2023-03-01T14:25:31;55.88;;;31.20;;
39016;SDS011;24784;45.582;5.276;2023-03-01T14:28:00;51.00;;;31.63;;
39016;SDS011;24784;45.582;5.276;2023-03-01T14:30:34;54.05;;;30.20;;
39016;SDS011;24784;45.582;5.276;2023-03-01T14:33:04;54.63;;;31.70;;
39016;SDS011;24784;45.582;5.276;2023-03-01T14:35:33;53.80;;;31.63;;
39016;SDS011;24784;45.582;5.276;2023-03-01T14:38:00;52.78;;;31.30;;
39016;SDS011;24784;45.582;5.276;2023-03-01T14:40:34;57.08;;;31.73;;
39016;SDS011;24784;45.582;5.276;2023-03-01T14:43:02;54.80;;;30.77;;
39016;SDS011;24784;45.582;5.276;2023-03-01T14:45:35;50.67;;;31.35;;
39016;SDS011;24784;45.582;5.276;2023-03-01T14:48:02;57.22;;;33.28;;
39016;SDS011;24784;45.582;5.276;2023-03-01T14:50:32;54.28;;;31.85;;
39016;SDS011;24784;45.582;5.276;2023-03-01T14:53:06;61.83;;;33.50;;
39016;SDS011;24784;45.582;5.276;2023-03-01T14:58:14;54.40;;;31.90;;
39016;SDS011;24784;45.582;5.276;2023-03-01T15:00:53;55.58;;;31.17;;
39016;SDS011;24784;45.582;5.276;2023-03-01T15:06:02;53.78;;;31.77;;
39016;SDS011;24784;45.582;5.276;2023-03-01T15:08:29;55.53;;;31.58;;
39016;SDS011;24784;45.582;5.276;2023-03-01T15:11:33;53.60;;;30.42;;
39016;SDS011;24784;45.582;5.276;2023-03-01T15:13:54;55.42;;;32.30;;
39016;SDS011;24784;45.582;5.276;2023-03-01T15:16:24;55.72;;;31.42;;
39016;SDS011;24784;45.582;5.276;2023-03-01T15:18:54;55.67;;;32.08;;
39016;SDS011;24784;45.582;5.276;2023-03-01T15:21:32;54.85;;;30.85;;
39016;SDS011;24784;45.582;5.276;2023-03-01T15:29:21;56.47;;;31.40;;
39016;SDS011;24784;45.582;5.276;2023-03-01T15:34:51;58.13;;;30.98;;
39016;SDS011;24784;45.582;5.276;2023-03-01T15:37:38;52.83;;;32.15;;
39016;SDS011;24784;45.582;5.276;2023-03-01T15:42:45;59.35;;;32.50;;
39016;SDS011;24784;45.582;5.276;2023-03-01T15:45:21;55.78;;;32.20;;
39016;SDS011;24784;45.582;5.276;2023-03-01T15:47:55;53.45;;;30.05;;
39016;SDS011;24784;45.582;5.276;2023-03-01T15:52:54;52.72;;;30.67;;
39016;SDS011;24784;45.582;5.276;2023-03-01T15:55:25;54.63;;;32.90;;
39016;SDS011;24784;45.582;5.276;2023-03-01T16:00:25;53.58;;;30.67;;
39016;SDS011;24784;45.582;5.276;2023-03-01T16:02:51;54.95;;;31.50;;
39016;SDS011;24784;45.582;5.276;2023-03-01T16:07:48;57.53;;;32.13;;
39016;SDS011;24784;45.582;5.276;2023-03-01T16:10:14;59.03;;;32.85;;
39016;SDS011;24784;45.582;5.276;2023-03-01T16:12:40;57.67;;;33.13;;
39016;SDS011;24784;45.582;5.276;2023-03-01T16:18:01;54.00;;;31.88;;
39016;SDS011;24784;45.582;5.276;2023-03-01T16:20:28;55.28;;;30.30;;
39016;SDS011;24784;45.582;5.276;2023-03-01T16:22:55;56.08;;;32.17;;
39016;SDS011;24784;45.582;5.276;2023-03-01T16:25:27;52.50;;;31.83;;
39016;SDS011;24784;45.582;5.276;2023-03-01T16:27:53;59.00;;;33.17;;
39016;SDS011;24784;45.582;5.276;2023-03-01T16:30:21;56.03;;;31.52;;
39016;SDS011;24784;45.582;5.276;2023-03-01T16:32:47;56.45;;;32.60;;
39016;SDS011;24784;45.582;5.276;2023-03-01T16:35:15;54.80;;;32.13;;
39016;SDS011;24784;45.582;5.276;2023-03-01T16:37:42;58.17;;;34.20;;
39016;SDS011;24784;45.582;5.276;2023-03-01T16:40:16;61.53;;;32.28;;
39016;SDS011;24784;45.582;5.276;2023-03-01T16:42:52;59.85;;;32.28;;
39016;SDS011;24784;45.582;5.276;2023-03-01T16:45:20;56.78;;;33.53;;
39016;SDS011;24784;45.582;5.276;2023-03-01T16:47:46;60.38;;;32.28;;
39016;SDS011;24784;45.582;5.276;2023-03-01T16:50:11;53.70;;;31.95;;
39016;SDS011;24784;45.582;5.276;2023-03-01T16:52:37;62.00;;;32.72;;
39016;SDS011;24784;45.582;5.276;2023-03-01T16:55:04;58.30;;;32.67;;
39016;SDS011;24784;45.582;5.276;2023-03-01T16:57:33;57.85;;;33.90;;
39016;SDS011;24784;45.582;5.276;2023-03-01T16:59:59;57.28;;;31.73;;
39016;SDS011;24784;45.582;5.276;2023-03-01T17:02:25;53.08;;;31.38;;
39016;SDS011;24784;45.582;5.276;2023-03-01T17:04:54;59.13;;;33.88;;
39016;SDS011;24784;45.582;5.276;2023-03-01T17:07:21;56.42;;;33.40;;